Time;durP1;ratioP1;P1;durP2;ratioP2;P2;SDS_P1;SDS_P2;PMS_P1;PMS_P2;Temp;Humidity;BMP_temperature;BMP_pressure;BME280_temperature;BME280_humidity;BME280_pressure;Samples;Min_cycle;Max_cycle;Signal;HPM_P1;HPM_P2
2023/04/21 00:05:22;;;;;;;24.30;15.95;;;8.00;99.90;;;;;;12504532;28;20127;-81
2023/04/21 00:11:24;;;;;;;27.55;17.20;;;7.80;99.90;;;;;;12515405;28;20057;-82
2023/04/21 00:17:26;;;;;;;27.60;17.63;;;7.60;99.90;;;;;;12534090;28;20053;-82
2023/04/21 00:23:28;;;;;;;27.30;17.58;;;7.50;99.90;;;;;;12504109;28;20083;-82
2023/04/21 00:29:30;;;;;;;27.40;17.70;;;7.50;99.90;;;;;;12495389;28;20065;-81
2023/04/21 00:35:32;;;;;;;29.05;18.33;;;7.40;99.90;;;;;;12518773;28;20044;-81
2023/04/21 00:41:35;;;;;;;30.35;18.63;;;7.30;99.90;;;;;;12499089;28;20053;-81
2023/04/21 00:47:37;;;;;;;31.23;19.83;;;7.30;99.90;;;;;;12510457;28;20079;-81
2023/04/21 00:53:39;;;;;;;32.72;20.40;;;7.40;99.90;;;;;;12508287;28;20356;-81
2023/04/21 00:59:42;;;;;;;33.63;21.27;;;7.40;99.90;;;;;;12517769;28;20049;-81
2023/04/21 01:05:45;;;;;;;31.52;21.15;;;7.60;99.90;;;;;;12537476;28;20053;-81
2023/04/21 01:12:22;;;;;;;30.10;21.30;;;7.80;99.90;;;;;;12527265;28;20045;-82
2023/04/21 01:18:24;;;;;;;31.85;20.85;;;7.90;99.90;;;;;;12436591;28;20052;-82
2023/04/21 01:24:36;;;;;;;26.73;19.48;;;8.00;99.90;;;;;;12507023;28;20044;-81
2023/04/21 01:30:38;;;;;;;33.00;20.95;;;7.90;99.90;;;;;;12506554;28;20128;-82
2023/04/21 01:36:40;;;;;;;34.85;21.77;;;8.00;99.90;;;;;;12509142;28;20071;-82
2023/04/21 01:42:44;;;;;;;29.67;20.70;;;8.10;99.90;;;;;;12536637;28;20049;-82
2023/04/21 01:48:47;;;;;;;31.67;21.52;;;8.20;99.90;;;;;;12508690;28;20053;-81
2023/04/21 01:54:49;;;;;;;32.72;22.70;;;8.20;99.90;;;;;;12507493;28;20045;-82
2023/04/21 02:00:51;;;;;;;34.22;22.48;;;8.30;99.90;;;;;;12509872;28;20080;-81
2023/04/21 02:06:53;;;;;;;34.00;21.80;;;8.30;99.90;;;;;;12519752;28;20053;-82
2023/04/21 02:12:54;;;;;;;30.27;20.35;;;8.50;99.90;;;;;;12505225;28;20057;-81
2023/04/21 02:18:56;;;;;;;29.20;19.63;;;8.50;99.90;;;;;;12509014;28;20828;-82
2023/04/21 02:24:58;;;;;;;28.13;18.73;;;8.60;99.90;;;;;;12507431;28;20558;-81
2023/04/21 02:31:00;;;;;;;28.00;19.48;;;8.60;99.90;;;;;;12506512;28;20048;-82
2023/04/21 02:37:02;;;;;;;27.17;18.80;;;8.70;99.90;;;;;;12524665;28;20049;-82
2023/04/21 02:43:04;;;;;;;26.92;18.77;;;8.90;99.90;;;;;;12503437;28;20736;-82
2023/04/21 02:49:06;;;;;;;25.73;18.25;;;8.80;99.90;;;;;;12527220;28;20055;-82
2023/04/21 02:55:08;;;;;;;27.05;17.23;;;8.90;99.90;;;;;;12523576;28;20053;-82
2023/04/21 03:01:09;;;;;;;26.52;17.42;;;8.80;99.90;;;;;;12512477;28;20138;-82
2023/04/21 03:07:12;;;;;;;23.73;15.68;;;8.90;99.90;;;;;;12488127;28;20041;-82
2023/04/21 03:13:15;;;;;;;25.77;17.27;;;8.90;99.90;;;;;;12512081;28;20456;-82
2023/04/21 03:19:17;;;;;;;23.30;17.00;;;8.90;99.90;;;;;;12515797;28;20084;-82
2023/04/21 03:25:19;;;;;;;24.85;17.23;;;8.90;99.90;;;;;;12499293;28;20463;-81
2023/04/21 03:31:21;;;;;;;27.48;17.55;;;8.80;99.90;;;;;;12512655;28;20049;-81
2023/04/21 03:37:22;;;;;;;24.17;17.65;;;8.80;99.90;;;;;;12499728;28;20049;-82
2023/04/21 03:43:24;;;;;;;27.15;17.33;;;8.80;99.90;;;;;;12515945;28;20135;-82
2023/04/21 03:49:26;;;;;;;27.15;16.55;;;8.80;99.90;;;;;;12516366;28;20187;-82
2023/04/21 03:55:28;;;;;;;28.50;16.55;;;8.80;99.90;;;;;;12516648;28;20061;-82
2023/04/21 04:01:30;;;;;;;24.92;16.13;;;8.90;99.90;;;;;;12498876;28;20481;-82
2023/04/21 04:07:32;;;;;;;22.17;16.45;;;8.80;99.90;;;;;;12521952;28;20099;-81
2023/04/21 04:13:34;;;;;;;26.63;16.85;;;8.80;99.90;;;;;;12513395;28;20060;-83
2023/04/21 04:19:36;;;;;;;26.88;17.35;;;8.80;99.90;;;;;;12491028;28;20045;-83
2023/04/21 04:25:38;;;;;;;26.92;16.58;;;8.80;99.90;;;;;;12494539;28;20072;-83
2023/04/21 04:31:40;;;;;;;25.40;16.38;;;8.80;99.90;;;;;;12513947;28;20044;-83
2023/04/21 04:37:42;;;;;;;27.85;16.52;;;8.90;99.90;;;;;;12498022;28;20084;-83
2023/04/21 04:43:45;;;;;;;26.25;17.38;;;8.90;99.90;;;;;;12494743;28;20056;-83
2023/04/21 04:49:47;;;;;;;24.52;15.73;;;9.10;99.90;;;;;;12496140;28;20428;-83
2023/04/21 04:55:49;;;;;;;24.17;14.10;;;9.60;99.90;;;;;;12497424;28;20068;-83
2023/04/21 05:01:51;;;;;;;20.40;13.52;;;10.10;99.90;;;;;;12496380;28;20065;-83
2023/04/21 05:07:53;;;;;;;21.88;13.60;;;10.00;99.90;;;;;;12489947;28;20448;-83
2023/04/21 05:13:55;;;;;;;22.40;13.65;;;10.00;99.90;;;;;;12489990;28;20076;-83
2023/04/21 05:19:57;;;;;;;21.85;13.20;;;9.90;99.90;;;;;;12496380;28;20746;-83
2023/04/21 05:25:59;;;;;;;24.33;11.85;;;9.80;99.90;;;;;;12497189;28;20045;-83
2023/04/21 05:32:04;;;;;;;24.98;12.15;;;10.40;99.90;;;;;;12494112;28;20128;-83
2023/04/21 05:38:06;;;;;;;20.50;11.75;;;10.70;99.90;;;;;;12511187;28;20050;-83
2023/04/21 05:44:08;;;;;;;18.98;11.13;;;11.00;99.90;;;;;;12494744;28;20444;-83
2023/04/21 05:50:10;;;;;;;17.15;10.73;;;11.30;99.90;;;;;;12507091;28;20057;-83
2023/04/21 05:56:12;;;;;;;13.68;10.88;;;11.20;99.90;;;;;;12501894;28;20055;-83
2023/04/21 06:02:14;;;;;;;21.02;11.27;;;10.60;99.90;;;;;;12504376;28;20560;-83
2023/04/21 06:08:16;;;;;;;21.60;12.05;;;10.30;99.90;;;;;;12513531;28;20497;-84
2023/04/21 06:14:18;;;;;;;22.42;10.55;;;10.30;99.90;;;;;;12495827;28;20717;-83
2023/04/21 06:20:20;;;;;;;23.85;11.10;;;10.50;99.90;;;;;;12520737;28;20044;-83
2023/04/21 06:26:22;;;;;;;16.67;10.85;;;10.50;99.90;;;;;;12507307;28;20076;-84
2023/04/21 06:32:23;;;;;;;19.05;10.90;;;10.50;99.90;;;;;;12543352;28;20520;-83
2023/04/21 06:38:25;;;;;;;18.08;10.77;;;10.60;99.90;;;;;;12520059;28;20052;-84
2023/04/21 06:44:28;;;;;;;18.50;11.00;;;10.80;99.90;;;;;;12522654;28;20040;-83
2023/04/21 06:50:30;;;;;;;18.52;10.75;;;10.80;99.90;;;;;;12520141;28;20063;-84
2023/04/21 06:56:32;;;;;;;16.63;10.60;;;10.80;99.90;;;;;;12510516;28;20106;-83
2023/04/21 07:02:33;;;;;;;19.30;10.35;;;10.90;99.90;;;;;;12528516;28;20048;-84
2023/04/21 07:08:36;;;;;;;20.60;10.05;;;11.10;99.90;;;;;;12494946;28;20077;-83
2023/04/21 07:14:38;;;;;;;20.55;9.68;;;11.40;99.90;;;;;;12506578;28;20099;-83
2023/04/21 07:20:40;;;;;;;18.48;9.15;;;11.60;99.90;;;;;;12497930;28;20044;-84
2023/04/21 07:26:41;;;;;;;16.95;9.77;;;11.60;99.90;;;;;;12506496;28;20057;-84
2023/04/21 07:32:43;;;;;;;14.02;9.63;;;11.70;99.90;;;;;;12509579;28;20512;-84
2023/04/21 07:38:45;;;;;;;14.52;9.52;;;11.90;99.90;;;;;;12490944;28;20481;-84
2023/04/21 07:44:47;;;;;;;17.70;9.40;;;12.20;99.90;;;;;;12490578;28;20052;-84
2023/04/21 07:50:50;;;;;;;16.50;8.80;;;12.40;99.90;;;;;;12526768;28;20044;-84
2023/04/21 07:56:51;;;;;;;18.35;8.55;;;12.40;99.90;;;;;;12510008;28;20041;-84
2023/04/21 08:02:53;;;;;;;17.20;8.68;;;12.60;99.90;;;;;;12509869;28;20059;-84
2023/04/21 08:08:55;;;;;;;16.17;8.50;;;12.80;99.90;;;;;;12533042;28;20049;-83
2023/04/21 08:14:57;;;;;;;14.63;8.48;;;13.10;99.90;;;;;;12485822;28;20474;-85
2023/04/21 08:20:59;;;;;;;11.52;7.28;;;13.10;99.90;;;;;;12514375;28;20548;-84
2023/04/21 08:27:01;;;;;;;13.13;7.47;;;13.30;99.90;;;;;;12505977;28;20077;-84
2023/04/21 08:33:03;;;;;;;15.60;8.32;;;13.30;99.90;;;;;;12491051;28;20141;-84
2023/04/21 08:39:05;;;;;;;18.92;8.88;;;13.50;99.90;;;;;;12501731;28;20049;-84
2023/04/21 08:45:07;;;;;;;14.35;7.72;;;13.70;99.90;;;;;;12498595;28;20448;-84
2023/04/21 08:51:09;;;;;;;13.93;7.53;;;13.90;99.90;;;;;;12499283;28;20073;-84
2023/04/21 08:57:11;;;;;;;10.68;7.25;;;14.40;99.90;;;;;;12491713;28;20053;-84
2023/04/21 09:03:26;;;;;;;14.60;7.30;;;14.50;99.90;;;;;;12497231;28;20081;-84
2023/04/21 09:09:28;;;;;;;15.13;7.50;;;14.70;99.90;;;;;;12485777;28;20053;-84
2023/04/21 09:15:38;;;;;;;13.25;6.97;;;14.60;99.90;;;;;;12510575;28;20059;-84
2023/04/21 09:21:43;;;;;;;13.10;7.05;;;15.20;99.90;;;;;;12512178;28;20102;-84
2023/04/21 09:27:45;;;;;;;12.23;7.03;;;15.50;99.90;;;;;;12525962;28;20046;-84
2023/04/21 09:33:57;;;;;;;10.70;6.78;;;15.70;99.90;;;;;;12507314;28;20048;-84
2023/04/21 09:40:01;;;;;;;13.75;6.85;;;16.10;99.90;;;;;;12501367;28;20175;-84
2023/04/21 09:46:06;;;;;;;10.63;6.63;;;16.40;99.90;;;;;;12506420;28;20046;-84
2023/04/21 09:52:08;;;;;;;15.25;6.07;;;16.30;99.90;;;;;;12509751;28;20386;-84
2023/04/21 09:58:23;;;;;;;14.93;6.53;;;16.50;99.90;;;;;;12496706;28;20521;-84
2023/04/21 10:04:27;;;;;;;14.35;5.97;;;16.60;99.90;;;;;;12487682;28;20049;-84
2023/04/21 10:10:30;;;;;;;13.45;6.00;;;16.70;99.90;;;;;;12508118;28;20080;-84
2023/04/21 10:16:35;;;;;;;16.92;6.00;;;16.80;99.90;;;;;;12515241;28;20111;-84
2023/04/21 10:22:38;;;;;;;11.60;5.63;;;17.10;99.90;;;;;;12513623;28;20497;-84
2023/04/21 10:28:44;;;;;;;11.68;4.75;;;17.10;99.90;;;;;;12505580;28;20147;-84
2023/04/21 10:34:47;;;;;;;8.82;4.47;;;17.50;99.90;;;;;;12493018;28;20084;-84
2023/04/21 10:40:50;;;;;;;13.70;5.00;;;17.50;99.90;;;;;;12490511;28;20122;-84
2023/04/21 10:46:52;;;;;;;10.93;4.63;;;17.50;99.90;;;;;;12504648;28;20155;-84
2023/04/21 10:52:58;;;;;;;9.45;4.18;;;17.80;99.90;;;;;;12510818;28;20049;-84
2023/04/21 10:59:00;;;;;;;12.13;4.03;;;17.70;99.90;;;;;;12498766;28;20076;-84
2023/04/21 11:05:02;;;;;;;8.77;4.05;;;18.00;99.90;;;;;;12497477;28;20057;-84
2023/04/21 11:11:04;;;;;;;7.38;3.50;;;18.20;99.90;;;;;;12495115;28;20046;-85
2023/04/21 11:17:17;;;;;;;10.68;3.47;;;18.70;99.90;;;;;;12482253;28;20045;-85
2023/04/21 11:23:19;;;;;;;9.32;3.33;;;18.40;99.90;;;;;;12497319;28;20149;-85
2023/04/21 11:29:21;;;;;;;7.38;3.42;;;19.00;99.90;;;;;;12491648;28;20570;-84
2023/04/21 11:35:23;;;;;;;11.90;3.28;;;18.70;99.90;;;;;;12495195;28;20076;-84
2023/04/21 11:41:25;;;;;;;8.50;3.15;;;18.60;99.90;;;;;;12496994;28;20103;-84
2023/04/21 11:47:27;;;;;;;6.75;2.88;;;18.90;99.90;;;;;;12517629;28;20642;-83
2023/04/21 11:53:29;;;;;;;11.63;2.72;;;18.90;99.90;;;;;;12517192;28;20060;-83
2023/04/21 11:59:31;;;;;;;12.85;2.72;;;19.00;99.90;;;;;;12507142;28;20088;-83
2023/04/21 12:05:34;;;;;;;7.65;2.53;;;19.20;99.90;;;;;;12489088;28;20041;-84
2023/04/21 12:11:36;;;;;;;9.23;2.50;;;19.70;99.90;;;;;;12497788;28;20103;-84
2023/04/21 12:17:43;;;;;;;8.82;2.35;;;19.60;99.90;;;;;;12501837;28;20075;-83
2023/04/21 12:23:45;;;;;;;10.52;2.50;;;18.70;99.90;;;;;;12493221;28;20139;-83
2023/04/21 12:29:46;;;;;;;8.13;2.47;;;18.60;99.90;;;;;;12500418;28;20485;-83
2023/04/21 12:35:48;;;;;;;6.47;2.45;;;18.80;99.90;;;;;;12524950;28;20047;-84
2023/04/21 12:41:50;;;;;;;8.18;2.40;;;19.20;99.90;;;;;;12516232;28;20612;-83
2023/04/21 12:47:53;;;;;;;10.25;2.50;;;19.20;99.90;;;;;;12497235;28;20077;-84
2023/04/21 12:53:55;;;;;;;6.80;2.50;;;19.60;99.90;;;;;;12504897;28;20057;-84
2023/04/21 12:59:57;;;;;;;8.10;2.50;;;20.10;99.90;;;;;;12504646;28;20061;-84
2023/04/21 13:05:59;;;;;;;7.85;2.65;;;19.80;99.90;;;;;;12465609;28;1150016;-83
2023/04/21 13:12:01;;;;;;;8.80;3.10;;;19.70;99.90;;;;;;12526734;28;20254;-84
2023/04/21 13:18:03;;;;;;;12.63;2.70;;;20.00;99.90;;;;;;12498424;28;20094;-84
2023/04/21 13:24:05;;;;;;;11.63;2.67;;;20.00;99.90;;;;;;12507118;28;20144;-84
2023/04/21 13:30:09;;;;;;;6.20;2.38;;;19.70;99.90;;;;;;12494887;28;20056;-84
2023/04/21 13:36:11;;;;;;;11.00;3.00;;;20.00;99.90;;;;;;12499474;28;20179;-83
2023/04/21 13:42:13;;;;;;;10.95;2.88;;;20.00;99.90;;;;;;12499782;28;20045;-84
2023/04/21 13:48:15;;;;;;;9.07;2.60;;;20.10;99.90;;;;;;12506120;28;20131;-84
2023/04/21 13:54:17;;;;;;;8.82;2.40;;;20.10;99.90;;;;;;12504964;28;20120;-83
2023/04/21 14:00:19;;;;;;;9.40;2.40;;;20.20;99.90;;;;;;12503664;28;20053;-84
2023/04/21 14:06:21;;;;;;;7.97;2.75;;;20.10;99.90;;;;;;12512929;28;20076;-84
2023/04/21 14:12:25;;;;;;;8.52;2.95;;;19.90;99.90;;;;;;12510673;28;20041;-84
2023/04/21 14:18:27;;;;;;;;;;;19.80;99.90;;;;;;12504135;28;20504;-84
2023/04/21 14:24:30;;;;;;;11.23;2.63;;;19.80;99.90;;;;;;12523848;28;20447;-84
2023/04/21 14:30:35;;;;;;;7.43;2.67;;;20.40;99.90;;;;;;12520339;28;20076;-84
2023/04/21 14:36:36;;;;;;;6.22;2.08;;;20.40;99.90;;;;;;12511103;28;20091;-84
2023/04/21 14:42:40;;;;;;;11.48;2.65;;;20.10;99.90;;;;;;12536736;28;20049;-85
2023/04/21 14:48:43;;;;;;;7.53;2.72;;;20.20;99.90;;;;;;12516869;28;20257;-84
2023/04/21 14:54:45;;;;;;;8.53;2.73;;;20.20;99.90;;;;;;12512370;28;20044;-82
2023/04/21 15:00:47;;;;;;;6.53;2.50;;;19.80;99.90;;;;;;12503787;28;20494;-84
2023/04/21 15:06:50;;;;;;;7.93;2.65;;;20.10;99.90;;;;;;12509845;28;20076;-84
2023/04/21 15:12:52;;;;;;;7.05;2.42;;;20.10;99.90;;;;;;12519986;28;20084;-84
2023/04/21 15:18:55;;;;;;;9.68;2.17;;;20.20;99.90;;;;;;12503888;28;20045;-84
2023/04/21 15:24:57;;;;;;;9.57;2.22;;;20.10;99.90;;;;;;12519810;28;20045;-84
2023/04/21 15:30:59;;;;;;;5.28;1.88;;;20.00;99.90;;;;;;12513218;28;20109;-84
2023/04/21 15:37:01;;;;;;;9.68;2.22;;;19.60;99.90;;;;;;12512775;28;20053;-84
2023/04/21 15:43:03;;;;;;;7.40;2.28;;;19.50;99.90;;;;;;12516690;28;20048;-83
2023/04/21 15:49:05;;;;;;;6.90;2.33;;;19.60;99.90;;;;;;12529016;28;20049;-84
2023/04/21 15:55:07;;;;;;;9.30;2.22;;;19.60;99.90;;;;;;12537761;28;20490;-84
2023/04/21 16:01:09;;;;;;;5.47;2.08;;;19.60;99.90;;;;;;12516121;28;20049;-83
2023/04/21 16:07:11;;;;;;;13.05;7.40;;;19.60;99.90;;;;;;12513584;28;20130;-84
2023/04/21 16:13:13;;;;;;;6.30;2.20;;;19.60;99.90;;;;;;12504927;28;20067;-84
2023/04/21 16:19:15;;;;;;;10.27;5.10;;;19.80;99.90;;;;;;12509890;28;20060;-83
2023/04/21 16:25:18;;;;;;;7.50;2.20;;;19.60;99.90;;;;;;12532611;28;20049;-84
2023/04/21 16:31:20;;;;;;;8.03;2.37;;;19.50;99.90;;;;;;12501137;28;20071;-84
2023/04/21 16:37:22;;;;;;;9.70;2.80;;;19.60;99.90;;;;;;12515390;28;20498;-84
2023/04/21 16:43:25;;;;;;;7.60;2.17;;;19.60;99.90;;;;;;12483143;28;20155;-84
2023/04/21 16:49:29;;;;;;;5.93;2.25;;;19.40;99.90;;;;;;12513265;28;20056;-84
2023/04/21 16:55:30;;;;;;;4.88;2.53;;;19.40;99.90;;;;;;12532479;28;20049;-84
2023/04/21 17:01:32;;;;;;;7.45;2.45;;;19.20;99.90;;;;;;12510223;28;20049;-85
2023/04/21 17:07:34;;;;;;;7.30;2.40;;;19.20;99.90;;;;;;12525857;28;20054;-85
2023/04/21 17:13:38;;;;;;;8.57;2.50;;;19.00;99.90;;;;;;12504440;28;20049;-84
2023/04/21 17:19:40;;;;;;;5.70;2.38;;;18.80;99.90;;;;;;12513245;28;20041;-84
2023/04/21 17:25:42;;;;;;;4.80;2.10;;;18.60;99.90;;;;;;12507530;28;20053;-84
2023/04/21 17:31:43;;;;;;;5.88;2.38;;;18.30;99.90;;;;;;12507737;28;20045;-85
2023/04/21 17:37:45;;;;;;;7.18;2.63;;;18.30;99.90;;;;;;12507149;28;20049;-84
2023/04/21 17:43:47;;;;;;;5.78;2.33;;;18.30;99.90;;;;;;12512148;28;20041;-85
2023/04/21 17:49:49;;;;;;;5.63;2.55;;;18.10;99.90;;;;;;12515714;28;20379;-84
2023/04/21 17:55:52;;;;;;;10.20;2.53;;;17.90;99.90;;;;;;12521162;28;20049;-85
2023/04/21 18:01:56;;;;;;;5.90;2.65;;;17.80;99.90;;;;;;12520696;28;20135;-85
2023/04/21 18:07:59;;;;;;;13.73;2.72;;;17.60;99.90;;;;;;12515122;28;20107;-84
2023/04/21 18:14:01;;;;;;;8.40;3.03;;;17.30;99.90;;;;;;12518797;28;20132;-84
2023/04/21 18:20:04;;;;;;;7.43;2.78;;;17.20;99.90;;;;;;12515128;28;20184;-84
2023/04/21 18:26:07;;;;;;;6.40;2.92;;;17.00;99.90;;;;;;12509173;28;20513;-84
2023/04/21 18:32:09;;;;;;;7.10;2.55;;;17.00;99.90;;;;;;12511173;28;20182;-84
2023/04/21 18:38:12;;;;;;;10.75;2.65;;;16.80;99.90;;;;;;12503261;28;20122;-84
2023/04/21 18:44:15;;;;;;;6.93;2.43;;;16.80;99.90;;;;;;12498774;28;20489;-84
2023/04/21 18:50:17;;;;;;;6.40;2.87;;;16.70;99.90;;;;;;12496148;28;20060;-84
2023/04/21 18:56:19;;;;;;;5.53;2.70;;;16.60;99.90;;;;;;12522501;28;20054;-84
2023/04/21 19:02:21;;;;;;;8.20;2.70;;;16.40;99.90;;;;;;12520887;28;20056;-83
2023/04/21 19:08:23;;;;;;;5.93;2.83;;;16.20;99.90;;;;;;12539305;28;20052;-83
2023/04/21 19:14:42;;;;;;;7.95;2.90;;;16.30;99.90;;;;;;12517598;28;20047;-82
2023/04/21 19:20:48;;;;;;;7.63;2.97;;;16.10;99.90;;;;;;12523388;28;21353;-83
2023/04/21 19:26:50;;;;;;;6.53;2.63;;;16.10;99.90;;;;;;12524226;28;20056;-83
2023/04/21 19:32:53;;;;;;;9.85;2.80;;;16.10;99.90;;;;;;12510913;28;20074;-83
2023/04/21 19:38:55;;;;;;;6.55;2.50;;;16.20;99.90;;;;;;12510204;28;20053;-83
2023/04/21 19:44:57;;;;;;;5.50;2.80;;;16.10;99.90;;;;;;12510604;28;20151;-83
2023/04/21 19:50:59;;;;;;;7.22;2.63;;;16.20;99.90;;;;;;12519061;28;20049;-83
2023/04/21 19:57:01;;;;;;;5.30;2.60;;;16.10;99.90;;;;;;12523354;28;20065;-83
2023/04/21 20:03:05;;;;;;;15.48;3.08;;;16.00;99.90;;;;;;12520084;28;20057;-83
2023/04/21 20:09:09;;;;;;;7.80;2.53;;;16.00;99.90;;;;;;12514599;28;20048;-83
2023/04/21 20:15:11;;;;;;;8.25;3.35;;;16.00;99.90;;;;;;12520973;28;20045;-83
2023/04/21 20:21:13;;;;;;;7.80;2.58;;;16.10;99.90;;;;;;12522217;28;20041;-83
2023/04/21 20:27:15;;;;;;;8.57;2.55;;;15.90;99.90;;;;;;12500284;28;20061;-83
2023/04/21 20:33:17;;;;;;;6.47;2.88;;;15.90;99.90;;;;;;12533897;28;20064;-82
2023/04/21 20:39:20;;;;;;;7.47;2.60;;;15.60;99.90;;;;;;12522434;28;20151;-83
2023/04/21 20:45:22;;;;;;;4.80;2.47;;;15.60;99.90;;;;;;12514090;28;20132;-83
2023/04/21 20:51:25;;;;;;;5.55;2.40;;;15.50;99.90;;;;;;12527654;28;20044;-83
2023/04/21 20:57:27;;;;;;;6.75;2.65;;;15.40;99.90;;;;;;12503218;28;20049;-83
2023/04/21 21:03:29;;;;;;;8.43;3.05;;;15.40;99.90;;;;;;12499955;28;20056;-83
2023/04/21 21:09:31;;;;;;;11.23;2.80;;;15.30;99.90;;;;;;12506176;28;20060;-83
2023/04/21 21:15:34;;;;;;;9.38;3.05;;;15.10;99.90;;;;;;12515551;28;20057;-82
2023/04/21 21:21:35;;;;;;;6.95;2.58;;;15.00;99.90;;;;;;12509031;28;20110;-83
2023/04/21 21:27:37;;;;;;;7.78;2.60;;;15.00;99.90;;;;;;12511596;28;20048;-83
2023/04/21 21:33:39;;;;;;;10.38;2.60;;;14.90;99.90;;;;;;12533597;28;20061;-82
2023/04/21 21:39:41;;;;;;;9.15;3.17;;;14.90;99.90;;;;;;12514075;28;20053;-82
2023/04/21 21:45:43;;;;;;;7.75;2.60;;;14.80;99.90;;;;;;12527570;28;20049;-82
2023/04/21 21:51:45;;;;;;;6.28;2.55;;;14.80;99.90;;;;;;12499311;28;20045;-82
2023/04/21 21:57:46;;;;;;;7.60;2.90;;;14.60;99.90;;;;;;12476715;28;20500;-82
2023/04/21 22:03:48;;;;;;;9.40;2.80;;;14.60;99.90;;;;;;12507302;28;20180;-82
2023/04/21 22:09:51;;;;;;;8.80;2.75;;;14.60;99.90;;;;;;12510290;28;20049;-82
2023/04/21 22:15:53;;;;;;;7.20;2.90;;;14.60;99.90;;;;;;12521276;28;20044;-82
2023/04/21 22:21:55;;;;;;;10.95;2.50;;;14.60;99.90;;;;;;12507370;28;20056;-82
2023/04/21 22:27:57;;;;;;;7.72;3.00;;;14.40;99.90;;;;;;12514372;28;20052;-82
2023/04/21 22:33:59;;;;;;;7.63;2.67;;;14.40;99.90;;;;;;12529009;28;20045;-82
2023/04/21 22:40:00;;;;;;;10.43;2.90;;;14.20;99.90;;;;;;12531166;28;20044;-82
2023/04/21 22:46:02;;;;;;;8.30;2.53;;;14.20;99.90;;;;;;12519714;28;20056;-83
2023/04/21 22:52:04;;;;;;;12.65;3.22;;;14.20;99.90;;;;;;12527380;28;20489;-83
2023/04/21 22:58:06;;;;;;;10.50;3.00;;;13.90;99.90;;;;;;12532612;28;20049;-82
2023/04/21 23:04:08;;;;;;;6.82;2.78;;;13.50;99.90;;;;;;12522171;28;20067;-83
2023/04/21 23:10:10;;;;;;;10.13;2.97;;;13.70;99.90;;;;;;12520607;28;20057;-82
2023/04/21 23:16:12;;;;;;;9.32;2.97;;;13.70;99.90;;;;;;12528453;28;20049;-82
2023/04/21 23:22:14;;;;;;;6.55;2.70;;;13.60;99.90;;;;;;12519948;28;20052;-83
2023/04/21 23:28:15;;;;;;;6.57;2.55;;;13.40;99.90;;;;;;12509267;28;20404;-83
2023/04/21 23:34:17;;;;;;;8.18;3.03;;;13.40;99.90;;;;;;12507323;28;20186;-82
2023/04/21 23:40:19;;;;;;;6.65;3.15;;;13.50;99.90;;;;;;12548488;28;20052;-83
2023/04/21 23:46:21;;;;;;;8.32;3.03;;;13.20;99.90;;;;;;12501186;28;20056;-83
2023/04/21 23:52:23;;;;;;;8.50;2.75;;;13.00;99.90;;;;;;12511987;28;20053;-82
2023/04/21 23:58:25;;;;;;;5.15;2.92;;;12.90;99.90;;;;;;12534936;28;20178;-82
